Time;durP1;ratioP1;P1;durP2;ratioP2;P2;SDS_P1;SDS_P2;PMS_P1;PMS_P2;Temp;Humidity;BMP_temperature;BMP_pressure;BME280_temperature;BME280_humidity;BME280_pressure;Samples;Min_cycle;Max_cycle;Signal;HPM_P1;HPM_P2
2020/12/28 00:01:12;;;;;;;1.55;0.80;;;;;;;3.79;100.00;97091.84;10138821;29;20044;-75
2020/12/28 00:06:14;;;;;;;1.27;0.80;;;;;;;3.74;100.00;97101.75;10120427;29;20072;-74
2020/12/28 00:11:19;;;;;;;1.92;0.90;;;;;;;3.47;100.00;97105.50;10118774;29;20525;-75
2020/12/28 00:16:20;;;;;;;;;;;;;;;3.48;100.00;97097.59;10138402;29;20122;-77
2020/12/28 00:21:21;;;;;;;1.88;0.88;;;;;;;3.43;100.00;97095.31;10136589;29;20269;-78
2020/12/28 00:26:24;;;;;;;1.25;0.68;;;;;;;3.48;100.00;97092.41;10137079;29;20047;-76
2020/12/28 00:31:25;;;;;;;1.13;0.70;;;;;;;3.51;100.00;97087.00;10137257;29;20052;-77
2020/12/28 00:36:27;;;;;;;1.42;0.80;;;;;;;3.58;100.00;97092.56;10136089;29;20061;-77
2020/12/28 00:41:29;;;;;;;0.75;0.65;;;;;;;3.57;100.00;97093.50;10137082;29;20048;-77
2020/12/28 00:46:30;;;;;;;2.80;1.25;;;;;;;3.48;100.00;97095.00;10131792;29;20486;-76
2020/12/28 00:51:31;;;;;;;1.90;0.90;;;;;;;3.29;100.00;97092.88;10133870;29;20049;-77
2020/12/28 00:56:34;;;;;;;1.67;0.90;;;;;;;3.29;100.00;97086.84;10117875;29;20056;-77
2020/12/28 01:01:35;;;;;;;2.55;1.02;;;;;;;3.31;100.00;97090.19;10118701;29;20049;-76
2020/12/28 01:06:42;;;;;;;3.17;1.40;;;;;;;3.35;100.00;97100.25;10117669;29;20056;-77
2020/12/28 01:12:01;;;;;;;4.90;1.90;;;;;;;3.37;100.00;97087.97;10129538;29;20127;-77
2020/12/28 01:17:03;;;;;;;5.05;2.42;;;;;;;3.36;100.00;97086.28;10135325;29;20044;-77
2020/12/28 01:22:12;;;;;;;5.25;2.05;;;;;;;3.33;100.00;97094.34;10119008;29;20048;-77
2020/12/28 01:27:14;;;;;;;2.83;1.55;;;;;;;3.28;100.00;97079.97;10133994;29;20513;-77
2020/12/28 01:32:16;;;;;;;2.45;1.10;;;;;;;3.29;100.00;97105.88;10117189;29;20157;-77
2020/12/28 01:37:37;;;;;;;2.10;1.05;;;;;;;3.27;100.00;97094.75;10123813;29;20136;-76
2020/12/28 01:42:38;;;;;;;1.77;1.00;;;;;;;3.35;100.00;97091.59;10135833;29;20100;-77
2020/12/28 01:47:40;;;;;;;1.75;1.10;;;;;;;3.25;100.00;97091.44;10128250;29;20063;-78
2020/12/28 01:52:46;;;;;;;2.42;1.30;;;;;;;3.35;100.00;97097.63;10133435;29;20391;-77
2020/12/28 01:57:48;;;;;;;3.53;1.30;;;;;;;3.28;100.00;97085.19;10134212;29;20072;-77
2020/12/28 02:02:50;;;;;;;2.40;1.15;;;;;;;3.35;100.00;97094.19;10120079;29;20048;-77
2020/12/28 02:08:06;;;;;;;2.47;1.55;;;;;;;3.23;100.00;97077.72;10117945;29;20056;-76
2020/12/28 02:13:08;;;;;;;1.88;0.85;;;;;;;3.20;100.00;97087.50;10117721;29;20059;-77
2020/12/28 02:18:21;;;;;;;1.42;0.90;;;;;;;3.28;100.00;97103.38;10125264;29;20080;-78
2020/12/28 02:23:36;;;;;;;3.33;1.50;;;;;;;3.22;100.00;97096.03;10110305;29;20478;-76
2020/12/28 02:28:38;;;;;;;2.88;1.60;;;;;;;3.23;100.00;97093.31;10115988;29;20441;-77
2020/12/28 02:33:40;;;;;;;2.05;1.27;;;;;;;3.31;100.00;97121.38;10124863;29;20099;-77
2020/12/28 02:38:52;;;;;;;1.23;0.63;;;;;;;3.24;100.00;97118.41;10109821;29;20081;-77
2020/12/28 02:43:55;;;;;;;0.98;0.60;;;;;;;3.27;100.00;97130.34;10133855;29;20556;-76
2020/12/28 02:49:14;;;;;;;1.13;0.77;;;;;;;3.24;100.00;97121.00;10130871;29;20072;-76
2020/12/28 02:54:34;;;;;;;3.05;1.20;;;;;;;3.32;100.00;97130.84;10119549;29;20044;-77
2020/12/28 02:59:54;;;;;;;4.95;1.88;;;;;;;3.28;100.00;97126.81;10129204;29;20425;-77
2020/12/28 03:05:13;;;;;;;1.75;1.00;;;;;;;3.44;100.00;97154.22;10139646;29;20490;-77
2020/12/28 03:10:33;;;;;;;2.38;0.95;;;;;;;3.37;100.00;97126.97;10138791;29;20044;-76
2020/12/28 03:15:52;;;;;;;2.80;2.20;;;;;;;3.43;100.00;97128.34;10140234;29;20044;-77
2020/12/28 03:21:12;;;;;;;1.25;0.60;;;;;;;3.35;100.00;97128.03;10140018;29;20044;-76
2020/12/28 03:26:32;;;;;;;0.80;0.55;;;;;;;3.41;100.00;97132.81;10137968;29;20390;-77
2020/12/28 03:32:21;;;;;;;1.52;0.90;;;;;;;3.44;100.00;97148.19;10052909;29;20080;-77
2020/12/28 03:37:40;;;;;;;2.08;0.73;;;;;;;3.52;100.00;97148.47;10133677;29;20128;-78
2020/12/28 03:43:00;;;;;;;0.90;0.50;;;;;;;3.52;100.00;97155.44;10137547;29;20060;-77
2020/12/28 03:48:19;;;;;;;1.35;0.65;;;;;;;3.50;100.00;97154.75;10139577;29;20052;-77
2020/12/28 03:53:39;;;;;;;0.82;0.55;;;;;;;3.50;100.00;97171.19;10138143;29;20505;-76
2020/12/28 03:58:58;;;;;;;0.63;0.40;;;;;;;3.48;100.00;97167.03;10137818;29;20075;-76
2020/12/28 04:04:18;;;;;;;2.33;0.80;;;;;;;3.48;100.00;97177.44;10099921;29;20896;-77
2020/12/28 04:09:44;;;;;;;1.25;0.70;;;;;;;3.50;100.00;97175.56;10121119;29;20544;-77
2020/12/28 04:15:04;;;;;;;1.45;0.82;;;;;;;3.52;100.00;97179.69;10121456;29;20108;-77
2020/12/28 04:20:05;;;;;;;3.00;1.00;;;;;;;3.57;100.00;97182.81;10137145;29;20048;-76
2020/12/28 04:25:06;;;;;;;1.88;0.93;;;;;;;3.51;100.00;97164.22;10137402;29;20057;-78
2020/12/28 04:30:08;;;;;;;1.92;1.00;;;;;;;3.40;100.00;97155.41;10129569;29;20045;-77
2020/12/28 04:35:09;;;;;;;1.67;0.80;;;;;;;3.42;100.00;97142.28;10121126;29;20075;-77
2020/12/28 04:40:10;;;;;;;2.05;1.13;;;;;;;3.34;100.00;97131.59;10136428;29;20051;-77
2020/12/28 04:45:11;;;;;;;1.95;0.80;;;;;;;3.31;100.00;97130.03;10136947;29;20053;-76
2020/12/28 04:50:14;;;;;;;0.60;0.50;;;;;;;3.26;100.00;97128.69;10120178;29;20053;-77
2020/12/28 04:55:16;;;;;;;2.17;0.63;;;;;;;3.14;100.00;97121.75;10119939;29;20054;-76
2020/12/28 05:00:17;;;;;;;1.48;0.93;;;;;;;3.15;100.00;97131.22;10135849;29;20049;-76
2020/12/28 05:05:19;;;;;;;1.08;0.80;;;;;;;3.18;100.00;97126.59;10136094;29;20053;-76
2020/12/28 05:10:24;;;;;;;1.13;0.70;;;;;;;3.11;100.00;97133.19;10135092;29;20044;-77
2020/12/28 05:15:25;;;;;;;0.57;0.57;;;;;;;3.01;100.00;97127.78;10135903;29;20441;-77
2020/12/28 05:20:26;;;;;;;1.27;0.77;;;;;;;3.04;100.00;97134.56;10135927;29;20048;-77
2020/12/28 05:25:29;;;;;;;1.83;0.77;;;;;;;2.92;100.00;97138.03;10135110;29;20049;-76
2020/12/28 05:30:33;;;;;;;0.60;0.60;;;;;;;2.86;100.00;97147.06;10134427;29;20048;-77
2020/12/28 05:35:34;;;;;;;0.90;0.50;;;;;;;3.00;100.00;97161.72;10135654;29;20069;-77
2020/12/28 05:40:37;;;;;;;2.35;0.80;;;;;;;2.86;100.00;97146.22;10135330;29;20391;-77
2020/12/28 05:45:45;;;;;;;1.98;0.88;;;;;;;2.84;100.00;97158.50;10135506;29;20052;-77
2020/12/28 05:50:57;;;;;;;4.35;1.13;;;;;;;2.66;100.00;97140.63;10135773;29;20044;-76
2020/12/28 05:56:02;;;;;;;1.65;1.10;;;;;;;2.61;100.00;97147.88;10134720;29;20410;-76
2020/12/28 06:01:08;;;;;;;3.20;1.50;;;;;;;2.32;100.00;97130.84;10133879;29;20040;-77
2020/12/28 06:06:09;;;;;;;1.88;1.17;;;;;;;2.04;100.00;97113.66;10141453;29;20484;-77
2020/12/28 06:11:10;;;;;;;2.40;1.63;;;;;;;1.75;100.00;97092.22;10126337;29;20067;-77
2020/12/28 06:16:24;;;;;;;2.55;1.55;;;;;;;1.30;100.00;97074.41;10141923;29;20052;-76
2020/12/28 06:21:36;;;;;;;2.60;1.20;;;;;;;1.07;100.00;97074.13;10143493;29;20048;-77
2020/12/28 06:26:37;;;;;;;3.45;1.63;;;;;;;0.89;100.00;97082.19;10118065;29;20045;-76
2020/12/28 06:31:38;;;;;;;2.53;1.30;;;;;;;0.96;100.00;97076.53;10130634;29;20473;-76
2020/12/28 06:36:39;;;;;;;2.78;1.60;;;;;;;0.84;100.00;97085.06;10128527;29;20516;-77
2020/12/28 06:41:40;;;;;;;2.45;1.10;;;;;;;0.68;100.00;97087.75;10141899;29;20104;-77
2020/12/28 06:46:41;;;;;;;2.97;1.30;;;;;;;0.54;100.00;97087.78;10141318;29;20056;-76
2020/12/28 06:51:42;;;;;;;2.22;1.52;;;;;;;0.51;100.00;97090.53;10107363;29;20049;-77
2020/12/28 06:56:44;;;;;;;2.63;1.50;;;;;;;0.30;100.00;97108.19;10140887;29;20084;-77
2020/12/28 07:01:46;;;;;;;2.22;1.52;;;;;;;0.31;100.00;97116.81;10124056;29;20072;-76
2020/12/28 07:06:58;;;;;;;2.58;1.30;;;;;;;0.47;100.00;97142.63;10140730;29;20105;-77
2020/12/28 07:12:10;;;;;;;2.72;1.38;;;;;;;0.75;100.00;97148.63;10141503;29;20045;-77
2020/12/28 07:17:11;;;;;;;2.65;1.50;;;;;;;0.75;100.00;97153.81;10123273;29;20056;-77
2020/12/28 07:22:13;;;;;;;4.15;1.98;;;;;;;0.94;100.00;97174.25;10139079;29;20401;-76
2020/12/28 07:27:14;;;;;;;3.13;2.00;;;;;;;0.88;100.00;97166.88;10139791;29;20045;-76
2020/12/28 07:32:17;;;;;;;3.58;1.75;;;;;;;0.98;100.00;97191.31;10139633;29;20044;-77
2020/12/28 07:37:19;;;;;;;2.95;1.90;;;;;;;0.42;100.00;97166.16;10139716;29;20096;-76
2020/12/28 07:42:27;;;;;;;3.75;2.28;;;;;;;0.30;100.00;97170.31;10137371;29;20060;-77
2020/12/28 07:47:52;;;;;;;5.20;2.42;;;;;;;0.27;100.00;97174.84;10122790;29;20057;-77
2020/12/28 07:53:11;;;;;;;4.43;2.70;;;;;;;0.30;100.00;97172.91;10115335;29;20048;-76
2020/12/28 07:58:14;;;;;;;3.85;3.00;;;;;;;0.37;100.00;97183.75;10121153;29;20048;-76
2020/12/28 08:03:35;;;;;;;4.38;3.45;;;;;;;0.40;100.00;97193.09;10139706;29;20381;-77
2020/12/28 08:08:36;;;;;;;4.93;2.83;;;;;;;0.49;100.00;97206.34;10138680;29;20546;-76
2020/12/28 08:13:37;;;;;;;4.22;2.22;;;;;;;0.71;100.00;97216.25;10137845;29;20047;-77
2020/12/28 08:18:55;;;;;;;4.20;2.58;;;;;;;1.36;100.00;97252.94;10120065;29;20064;-77
2020/12/28 08:24:01;;;;;;;3.67;2.45;;;;;;;2.03;100.00;97275.53;10138462;29;20412;-77
2020/12/28 08:29:02;;;;;;;4.90;3.05;;;;;;;3.43;100.00;97310.47;10136749;29;20055;-77
2020/12/28 08:34:06;;;;;;;3.58;2.20;;;;;;;4.10;100.00;97343.06;10136050;29;20509;-78
2020/12/28 08:39:15;;;;;;;4.53;2.42;;;;;;;3.86;100.00;97323.09;10137272;29;20037;-76
2020/12/28 08:44:25;;;;;;;4.88;2.13;;;;;;;4.19;100.00;97318.97;10120852;29;20080;-76
2020/12/28 08:49:32;;;;;;;4.35;2.20;;;;;;;4.03;100.00;97263.69;10136122;29;20044;-77
2020/12/28 08:54:33;;;;;;;2.83;1.77;;;;;;;3.20;100.00;97205.38;10137739;29;20040;-77
2020/12/28 08:59:34;;;;;;;3.40;1.95;;;;;;;2.76;100.00;97187.63;10137321;29;20049;-76
2020/12/28 09:04:35;;;;;;;4.38;2.17;;;;;;;2.90;100.00;97212.69;10136578;29;20044;-76
2020/12/28 09:09:39;;;;;;;4.28;2.17;;;;;;;2.91;100.00;97211.75;10135449;29;20081;-77
2020/12/28 09:14:41;;;;;;;4.28;2.65;;;;;;;3.38;100.00;97242.28;10119670;29;20434;-77
2020/12/28 09:19:49;;;;;;;6.63;2.63;;;;;;;6.26;100.00;97295.47;10136129;29;20040;-76
2020/12/28 09:24:50;;;;;;;5.90;2.72;;;;;;;6.72;100.00;97239.44;10136355;29;20050;-77
2020/12/28 09:29:51;;;;;;;5.68;2.35;;;;;;;6.92;100.00;97175.81;10130361;29;20461;-77
2020/12/28 09:34:53;;;;;;;5.20;2.30;;;;;;;7.06;100.00;97140.63;10133970;29;20545;-77
2020/12/28 09:39:54;;;;;;;3.63;2.05;;;;;;;5.03;100.00;97054.56;10137744;29;20462;-78
2020/12/28 09:44:55;;;;;;;2.72;1.63;;;;;;;4.60;100.00;97075.34;10135208;29;20552;-76
2020/12/28 09:49:56;;;;;;;4.22;2.15;;;;;;;4.05;100.00;97063.88;10141093;29;20041;-76
2020/12/28 09:54:57;;;;;;;4.50;2.42;;;;;;;3.63;100.00;97077.44;10140218;29;20040;-76
2020/12/28 09:59:58;;;;;;;5.38;2.40;;;;;;;3.47;100.00;97102.91;10142402;29;20072;-75
2020/12/28 10:04:59;;;;;;;5.03;2.47;;;;;;;3.13;100.00;97115.72;10142212;29;20053;-75
2020/12/28 10:10:02;;;;;;;4.63;2.72;;;;;;;2.81;100.00;97127.50;10118973;29;20048;-76
2020/12/28 10:15:05;;;;;;;5.10;2.10;;;;;;;2.77;100.00;97154.63;10136228;29;20053;-76
2020/12/28 10:20:06;;;;;;;4.82;3.05;;;;;;;2.84;100.00;97174.94;10114377;29;20056;-76
2020/12/28 10:25:22;;;;;;;4.13;2.40;;;;;;;2.89;100.00;97182.41;10124180;29;20397;-76
2020/12/28 10:30:23;;;;;;;5.60;2.40;;;;;;;3.01;100.00;97198.00;10141018;29;20077;-76
2020/12/28 10:35:25;;;;;;;4.55;2.45;;;;;;;3.01;100.00;97210.19;10139994;29;20060;-69
2020/12/28 10:40:28;;;;;;;4.90;2.97;;;;;;;3.11;100.00;97213.78;10132083;29;20052;-76
2020/12/28 10:45:41;;;;;;;5.32;3.65;;;;;;;3.20;100.00;97233.97;10130945;29;20127;-76
2020/12/28 10:50:42;;;;;;;4.45;3.42;;;;;;;3.18;100.00;97233.25;10140671;29;20040;-76
2020/12/28 10:55:45;;;;;;;4.72;3.35;;;;;;;3.20;100.00;97233.97;10136578;29;20490;-76
2020/12/28 11:00:50;;;;;;;5.07;3.22;;;;;;;3.28;100.00;97259.47;10137351;29;20053;-76
2020/12/28 11:05:52;;;;;;;5.00;3.13;;;;;;;3.29;100.00;97250.72;10138919;29;20079;-75
2020/12/28 11:10:53;;;;;;;4.35;3.13;;;;;;;3.24;100.00;97232.00;10140092;29;20059;-75
2020/12/28 11:15:54;;;;;;;5.25;3.33;;;;;;;3.48;100.00;97260.69;10140105;29;20071;-75
2020/12/28 11:20:56;;;;;;;4.68;2.65;;;;;;;3.53;100.00;97256.84;10139794;29;20052;-75
2020/12/28 11:25:57;;;;;;;6.30;2.22;;;;;;;3.77;100.00;97239.50;10140555;29;20041;-75
2020/12/28 11:30:58;;;;;;;3.13;2.05;;;;;;;4.01;100.00;97243.91;10140076;29;20049;-76
2020/12/28 11:35:59;;;;;;;5.15;2.30;;;;;;;4.25;100.00;97223.09;10140335;29;20053;-74
2020/12/28 11:41:00;;;;;;;3.70;1.95;;;;;;;4.35;100.00;97185.78;10133909;29;20048;-75
2020/12/28 11:46:02;;;;;;;5.22;2.05;;;;;;;4.66;100.00;97158.28;10132925;29;20633;-75
2020/12/28 11:51:05;;;;;;;5.85;2.30;;;;;;;4.61;100.00;97121.28;10139554;29;20045;-75
2020/12/28 11:56:12;;;;;;;4.57;2.20;;;;;;;4.63;100.00;97103.78;10123208;29;20037;-75
2020/12/28 12:01:18;;;;;;;3.47;1.80;;;;;;;4.67;100.00;97079.13;10138025;29;20048;-75
2020/12/28 12:06:21;;;;;;;3.20;1.42;;;;;;;4.69;100.00;97073.78;10139133;29;20055;-74
2020/12/28 12:11:23;;;;;;;3.67;1.80;;;;;;;4.64;100.00;97047.25;10138181;29;20049;-75
2020/12/28 12:16:25;;;;;;;3.75;1.90;;;;;;;4.64;100.00;97047.25;10120697;29;20049;-75
2020/12/28 12:21:28;;;;;;;6.47;1.90;;;;;;;4.51;100.00;97027.34;10138912;29;20067;-76
2020/12/28 12:26:29;;;;;;;3.47;2.00;;;;;;;4.38;100.00;97029.22;10122093;29;20044;-76
2020/12/28 12:31:30;;;;;;;4.68;1.83;;;;;;;4.45;100.00;97024.38;10139077;29;20056;-75
2020/12/28 12:36:32;;;;;;;5.38;2.47;;;;;;;4.41;100.00;97000.34;10138826;29;20052;-76
2020/12/28 12:41:33;;;;;;;5.05;2.50;;;;;;;4.34;100.00;97008.75;10137800;29;20052;-75
2020/12/28 12:46:34;;;;;;;4.03;2.22;;;;;;;4.43;100.00;97040.16;10137854;29;20410;-75
2020/12/28 12:51:36;;;;;;;3.72;2.00;;;;;;;4.41;100.00;97029.00;10137394;29;20413;-75
2020/12/28 12:56:37;;;;;;;4.32;2.47;;;;;;;4.42;100.00;97046.31;10137327;29;20120;-75
2020/12/28 13:01:38;;;;;;;5.40;2.35;;;;;;;4.40;100.00;97037.78;10136760;29;20056;-75
2020/12/28 13:06:39;;;;;;;4.90;2.90;;;;;;;4.42;100.00;97046.31;10137086;29;20055;-75
2020/12/28 13:11:40;;;;;;;4.35;2.50;;;;;;;4.51;100.00;97068.22;10137204;29;20052;-75
2020/12/28 13:16:47;;;;;;;4.07;2.40;;;;;;;4.61;100.00;97065.72;10137148;29;20041;-75
2020/12/28 13:21:48;;;;;;;5.10;2.88;;;;;;;4.52;100.00;97051.63;10136207;29;20470;-76
2020/12/28 13:26:49;;;;;;;4.90;2.47;;;;;;;4.54;100.00;97057.53;10135649;29;20051;-75
2020/12/28 13:31:50;;;;;;;6.63;2.92;;;;;;;4.49;100.00;97054.47;10123034;29;20097;-76
2020/12/28 13:36:53;;;;;;;5.47;3.35;;;;;;;4.54;100.00;97054.94;10132247;29;20112;-76
2020/12/28 13:41:59;;;;;;;5.00;2.63;;;;;;;4.60;100.00;97072.75;10132768;29;20052;-75
2020/12/28 13:47:00;;;;;;;6.40;2.90;;;;;;;4.56;100.00;97066.91;10126811;29;20104;-75
2020/12/28 13:52:01;;;;;;;5.07;3.72;;;;;;;4.59;100.00;97081.50;10133198;29;20043;-75
2020/12/28 13:57:02;;;;;;;5.10;3.17;;;;;;;4.61;100.00;97083.97;10113400;29;20045;-75
2020/12/28 14:02:07;;;;;;;5.38;2.88;;;;;;;4.59;100.00;97081.50;10131552;29;20049;-75
2020/12/28 14:07:08;;;;;;;5.38;2.70;;;;;;;4.60;100.00;97088.38;10135458;29;20040;-74
2020/12/28 14:12:10;;;;;;;3.67;2.28;;;;;;;4.51;100.00;97071.66;10121242;29;20048;-75
2020/12/28 14:17:11;;;;;;;3.70;1.98;;;;;;;4.58;100.00;97093.72;10132215;29;20163;-74
2020/12/28 14:22:12;;;;;;;3.58;2.40;;;;;;;4.46;100.00;97080.75;10126991;29;20060;-75
2020/12/28 14:27:13;;;;;;;5.55;2.47;;;;;;;4.47;100.00;97090.25;10123678;29;20046;-74
2020/12/28 14:32:14;;;;;;;3.58;2.60;;;;;;;4.44;100.00;97109.53;10130238;29;20052;-74
2020/12/28 14:37:15;;;;;;;5.72;3.08;;;;;;;4.33;100.00;97114.75;10141587;29;20044;-74
2020/12/28 14:42:16;;;;;;;6.03;2.70;;;;;;;4.20;100.00;97120.03;10126761;29;20413;-74
2020/12/28 14:47:17;;;;;;;4.57;2.92;;;;;;;4.23;100.00;97145.03;10143368;29;20379;-74
2020/12/28 14:52:19;;;;;;;6.25;3.22;;;;;;;4.15;100.00;97157.78;10143026;29;20127;-74
2020/12/28 14:57:21;;;;;;;4.00;2.70;;;;;;;4.19;100.00;97169.63;10144144;29;20438;-74
2020/12/28 15:02:22;;;;;;;4.43;2.72;;;;;;;4.07;100.00;97160.97;10142570;29;20049;-74
2020/12/28 15:07:23;;;;;;;5.97;2.80;;;;;;;4.06;100.00;97174.09;10143273;29;20044;-75
2020/12/28 15:12:24;;;;;;;6.00;3.70;;;;;;;3.98;100.00;97153.81;10142897;29;20132;-75
2020/12/28 15:17:25;;;;;;;4.50;3.03;;;;;;;4.00;100.00;97154.53;10142221;29;20048;-76
2020/12/28 15:22:27;;;;;;;4.20;2.65;;;;;;;3.95;100.00;97143.63;10141913;29;20123;-75
2020/12/28 15:27:28;;;;;;;3.63;2.67;;;;;;;3.99;100.00;97149.44;10141578;29;20060;-74
2020/12/28 15:32:29;;;;;;;4.10;2.78;;;;;;;3.95;100.00;97145.38;10140368;29;20067;-75
2020/12/28 15:37:30;;;;;;;4.47;2.47;;;;;;;3.96;100.00;97139.25;10122782;29;20051;-75
2020/12/28 15:42:31;;;;;;;4.78;2.67;;;;;;;3.92;100.00;97127.41;10138819;29;20135;-74
2020/12/28 15:47:32;;;;;;;4.30;2.97;;;;;;;3.84;100.00;97129.72;10141733;29;20049;-74
2020/12/28 15:52:33;;;;;;;6.30;3.72;;;;;;;3.78;100.00;97112.75;10142438;29;20088;-75
2020/12/28 15:57:35;;;;;;;5.30;3.67;;;;;;;3.81;100.00;97128.19;10141730;29;20401;-74
2020/12/28 16:02:36;;;;;;;4.95;3.20;;;;;;;3.74;100.00;97117.38;10144228;29;20049;-75
2020/12/28 16:07:37;;;;;;;4.47;3.58;;;;;;;3.67;100.00;97121.38;10142378;29;20040;-74
2020/12/28 16:12:42;;;;;;;5.97;3.97;;;;;;;3.66;100.00;97132.72;10142333;29;20067;-74
2020/12/28 16:17:46;;;;;;;5.15;3.83;;;;;;;3.63;100.00;97145.94;10142623;29;20508;-74
2020/12/28 16:22:48;;;;;;;8.02;5.07;;;;;;;3.62;100.00;97136.47;10142333;29;20049;-74
2020/12/28 16:27:49;;;;;;;4.90;4.00;;;;;;;3.71;100.00;97167.06;10142627;29;20435;-74
2020/12/28 16:32:50;;;;;;;6.25;3.95;;;;;;;3.74;100.00;97166.00;10143044;29;20071;-74
2020/12/28 16:37:52;;;;;;;5.43;3.97;;;;;;;3.69;100.00;97170.69;10141704;29;20056;-74
2020/12/28 16:42:53;;;;;;;4.65;3.70;;;;;;;3.73;100.00;97178.19;10141748;29;20056;-74
2020/12/28 16:47:54;;;;;;;6.55;4.13;;;;;;;3.76;100.00;97183.19;10106253;29;20053;-74
2020/12/28 16:52:57;;;;;;;5.00;3.70;;;;;;;3.66;100.00;97191.75;10103474;29;20053;-74
2020/12/28 16:57:59;;;;;;;5.70;4.07;;;;;;;3.71;100.00;97208.69;10100096;29;20061;-74
2020/12/28 17:03:00;;;;;;;7.63;4.68;;;;;;;3.70;100.00;97230.47;10100802;29;20494;-74
2020/12/28 17:08:01;;;;;;;4.57;3.03;;;;;;;3.87;100.00;97228.44;10101649;29;20490;-74
2020/12/28 17:13:02;;;;;;;4.03;2.55;;;;;;;3.92;100.00;97232.41;10099456;29;20133;-74
2020/12/28 17:18:03;;;;;;;3.25;2.30;;;;;;;3.81;100.00;97230.53;10130024;29;20454;-74
2020/12/28 17:23:04;;;;;;;4.45;2.17;;;;;;;3.84;100.00;97241.69;10121448;29;20419;-74
2020/12/28 17:28:06;;;;;;;37.70;35.28;;;;;;;3.84;100.00;97244.28;10136958;29;20410;-74
2020/12/28 17:33:09;;;;;;;12.23;11.23;;;;;;;4.00;100.00;97253.50;10136486;29;20064;-76
2020/12/28 17:38:10;;;;;;;4.78;2.90;;;;;;;3.76;100.00;97234.44;10121131;29;20056;-76
2020/12/28 17:43:11;;;;;;;2.65;1.85;;;;;;;3.76;100.00;97244.84;10123346;29;20052;-76
2020/12/28 17:48:12;;;;;;;3.80;2.70;;;;;;;3.75;100.00;97233.59;10133732;29;20048;-76
2020/12/28 17:53:14;;;;;;;2.70;2.00;;;;;;;3.76;100.00;97237.03;10117690;29;20135;-76
2020/12/28 17:58:15;;;;;;;2.72;1.90;;;;;;;3.70;100.00;97238.28;10127529;29;20397;-77
2020/12/28 18:03:17;;;;;;;8.60;5.93;;;;;;;3.64;100.00;97230.06;10141187;29;20548;-76
2020/12/28 18:08:18;;;;;;;7.95;5.05;;;;;;;3.65;100.00;97239.53;10115742;29;20044;-77
2020/12/28 18:13:20;;;;;;;5.78;3.55;;;;;;;3.69;100.00;97241.81;10140116;29;20049;-77
2020/12/28 18:18:21;;;;;;;5.47;3.28;;;;;;;3.62;100.00;97235.38;10144518;29;20060;-77
2020/12/28 18:23:22;;;;;;;5.45;4.95;;;;;;;3.64;100.00;97235.28;10136323;29;20059;-76
2020/12/28 18:28:23;;;;;;;4.35;2.55;;;;;;;3.66;100.00;97225.59;10156656;29;20045;-76
2020/12/28 18:33:24;;;;;;;4.18;2.50;;;;;;;3.43;100.00;97207.19;10141034;29;20056;-77
2020/12/28 18:38:25;;;;;;;5.10;2.95;;;;;;;3.36;100.00;97211.16;10156196;29;20048;-77
2020/12/28 18:43:26;;;;;;;3.92;2.80;;;;;;;3.37;100.00;97215.44;10140394;29;20040;-77
2020/12/28 18:48:28;;;;;;;3.38;2.25;;;;;;;3.13;100.00;97222.34;10124556;29;20045;-76
2020/12/28 18:53:31;;;;;;;3.30;1.98;;;;;;;3.09;100.00;97236.50;10141412;29;20053;-76
2020/12/28 18:58:33;;;;;;;3.70;2.53;;;;;;;3.07;100.00;97251.38;10140132;29;20567;-76
2020/12/28 19:03:35;;;;;;;4.25;3.25;;;;;;;2.96;100.00;97241.69;10132094;29;20041;-77
2020/12/28 19:08:36;;;;;;;4.25;2.88;;;;;;;3.05;100.00;97274.88;10135289;29;20037;-77
2020/12/28 19:13:37;;;;;;;4.03;2.80;;;;;;;2.97;100.00;97276.31;10119213;29;20070;-76
2020/12/28 19:18:39;;;;;;;4.25;3.30;;;;;;;2.96;100.00;97272.88;10143545;29;20045;-76
2020/12/28 19:23:40;;;;;;;4.57;3.30;;;;;;;3.03;100.00;97274.13;10106791;29;20084;-76
2020/12/28 19:28:41;;;;;;;4.88;3.30;;;;;;;3.11;100.00;97271.00;10129708;29;20053;-77
2020/12/28 19:33:42;;;;;;;4.45;3.30;;;;;;;3.17;100.00;97275.00;10137278;29;20136;-74
2020/12/28 19:38:44;;;;;;;5.22;3.88;;;;;;;3.16;100.00;97276.75;10127727;29;20409;-74
2020/12/28 19:43:45;;;;;;;5.20;3.60;;;;;;;3.20;100.00;97267.78;10105344;29;20052;-74
2020/12/28 19:48:46;;;;;;;7.38;2.90;;;;;;;3.17;100.00;97248.97;10136101;29;20098;-74
2020/12/28 19:53:47;;;;;;;4.28;3.10;;;;;;;3.22;100.00;97228.69;10132402;29;20055;-75
2020/12/28 19:58:51;;;;;;;3.13;2.10;;;;;;;3.18;100.00;97219.44;10137593;29;20056;-75
2020/12/28 20:03:52;;;;;;;3.33;2.15;;;;;;;3.06;100.00;97202.91;10136077;29;20493;-74
2020/12/28 20:08:53;;;;;;;3.50;2.75;;;;;;;2.93;100.00;97194.28;10132126;29;20071;-75
2020/12/28 20:13:55;;;;;;;10.02;7.85;;;;;;;2.62;100.00;97174.72;10137774;29;20053;-74
2020/12/28 20:18:56;;;;;;;10.18;9.18;;;;;;;2.55;100.00;97197.69;10120167;29;20057;-75
2020/12/28 20:23:57;;;;;;;20.33;18.15;;;;;;;2.39;100.00;97194.44;10131590;29;20065;-75
2020/12/28 20:28:59;;;;;;;5.75;4.82;;;;;;;2.49;100.00;97224.06;10135821;29;20045;-75
2020/12/28 20:34:01;;;;;;;26.58;16.20;;;;;;;2.34;100.00;97224.25;10136270;29;20406;-75
2020/12/28 20:39:08;;;;;;;20.52;14.05;;;;;;;2.42;100.00;97243.59;10136337;29;20052;-75
2020/12/28 20:44:10;;;;;;;5.75;3.20;;;;;;;2.40;100.00;97258.44;10135748;29;20055;-75
2020/12/28 20:49:11;;;;;;;4.55;3.55;;;;;;;2.67;100.00;97267.03;10116062;29;20045;-75
2020/12/28 20:54:12;;;;;;;4.65;3.15;;;;;;;2.77;100.00;97269.00;10105664;29;20041;-74
2020/12/28 20:59:13;;;;;;;3.30;2.22;;;;;;;2.78;100.00;97250.72;10136019;29;20482;-75
2020/12/28 21:04:14;;;;;;;3.40;2.50;;;;;;;2.69;100.00;97238.31;10134989;29;20044;-75
2020/12/28 21:09:15;;;;;;;4.22;2.85;;;;;;;2.51;100.00;97227.38;10128977;29;20386;-75
2020/12/28 21:14:17;;;;;;;4.15;2.72;;;;;;;2.01;100.00;97214.28;10133243;29;20096;-75
2020/12/28 21:19:18;;;;;;;3.58;2.50;;;;;;;1.54;100.00;97218.09;10131924;29;20048;-75
2020/12/28 21:24:20;;;;;;;4.20;3.40;;;;;;;1.26;100.00;97229.31;10115522;29;20048;-75
2020/12/28 21:29:21;;;;;;;4.85;3.67;;;;;;;1.16;100.00;97236.03;10132764;29;20056;-75
2020/12/28 21:34:22;;;;;;;5.68;4.55;;;;;;;1.00;100.00;97235.28;10134121;29;20060;-75
2020/12/28 21:39:23;;;;;;;5.28;4.25;;;;;;;0.93;100.00;97232.19;10134790;29;20405;-75
2020/12/28 21:44:25;;;;;;;7.20;5.85;;;;;;;0.87;100.00;97234.31;10134635;29;20060;-74
2020/12/28 21:49:26;;;;;;;7.57;6.38;;;;;;;0.90;100.00;97250.53;10134844;29;20056;-75
2020/12/28 21:54:27;;;;;;;9.32;7.32;;;;;;;1.01;100.00;97255.06;10132100;29;20050;-75
2020/12/28 21:59:29;;;;;;;9.18;6.82;;;;;;;0.93;100.00;97249.50;10132042;29;20044;-75
2020/12/28 22:04:30;;;;;;;8.93;6.38;;;;;;;0.75;100.00;97254.03;10130588;29;20037;-75
2020/12/28 22:09:31;;;;;;;8.73;6.50;;;;;;;0.72;100.00;97254.19;10125023;29;20044;-74
2020/12/28 22:14:36;;;;;;;;;;;;;;;0.64;100.00;97249.47;10126072;29;20092;-75
2020/12/28 22:19:37;;;;;;;8.20;6.13;;;;;;;0.59;100.00;97259.25;10132585;29;19971;-74
2020/12/28 22:24:38;;;;;;;7.72;6.28;;;;;;;0.73;100.00;97266.22;10132007;29;20052;-75
2020/12/28 22:29:40;;;;;;;8.77;6.40;;;;;;;0.39;100.00;97246.63;10131633;29;20465;-74
2020/12/28 22:34:41;;;;;;;10.88;7.75;;;;;;;0.13;100.00;97252.44;10131834;29;20446;-75
2020/12/28 22:39:42;;;;;;;7.93;6.07;;;;;;;-0.19;100.00;97241.31;10112104;29;20040;-75
2020/12/28 22:44:43;;;;;;;8.88;6.43;;;;;;;-0.30;100.00;97252.22;10109635;29;20093;-75
2020/12/28 22:49:44;;;;;;;7.65;6.13;;;;;;;-0.47;100.00;97255.72;10101958;29;20059;-75
2020/12/28 22:54:45;;;;;;;7.57;6.05;;;;;;;0.00;100.00;97281.56;10101439;29;20048;-75
2020/12/28 22:59:47;;;;;;;7.47;5.70;;;;;;;0.23;100.00;97289.84;10139556;29;20053;-75
2020/12/28 23:04:48;;;;;;;7.43;5.78;;;;;;;0.26;100.00;97294.81;10151209;29;20075;-75
2020/12/28 23:09:49;;;;;;;7.65;6.07;;;;;;;0.27;100.00;97307.69;10171399;29;20047;-74
2020/12/28 23:14:50;;;;;;;7.38;6.20;;;;;;;0.21;100.00;97305.44;10140038;29;20052;-75
2020/12/28 23:19:51;;;;;;;9.15;5.88;;;;;;;0.08;100.00;97309.66;10132178;29;20053;-75
2020/12/28 23:24:52;;;;;;;6.40;5.60;;;;;;;0.21;100.00;97320.97;10138631;29;20057;-75
2020/12/28 23:30:11;;;;;;;9.07;5.60;;;;;;;0.14;100.00;97318.81;10139699;29;20080;-75